Alva, Florida
Current Conditions -  °F | °C
As of 11:53 PM on Sunday 19 Oct 2014 (Local Time) from KRSW Reporting Station
Few Clouds Few Clouds  
Wind Chill: 70°   Ceiling: Unl
Heat Index: 70°   Visibility: 10mi
Dew Point: 64°   Wind: 8mph
Humidity: 81%   Direction: 80°E
Pressure: 30.03"   Gusts: NA
Location:  26.72°N, 81.61°W
Report Text: KRSW 200353Z AUTO 08007KT 10SM FEW034 21/18 A3003 RMK AO2 SLP165 T02110178 TSNO
Loading
Personal Weather Stations






























Interactive Weather Map
Tropical Storm Tracking
New forecast layout! Learn more

10-Day Weather Forecast

Advertisements
Track Severe Weather on mobile